createdAt,value
2023-03-07T00:00:45.428Z,82.45
2023-03-07T00:03:20.827Z,82.15
2023-03-07T00:05:49.988Z,80.70
2023-03-07T00:08:18.794Z,80.16
2023-03-07T00:10:49.216Z,79.56
2023-03-07T00:13:17.985Z,79.53
2023-03-07T00:15:47.131Z,79.22
2023-03-07T00:18:15.933Z,79.08
2023-03-07T00:20:45.810Z,79.05
2023-03-07T00:23:14.579Z,78.99
2023-03-07T00:25:43.624Z,78.83
2023-03-07T00:28:13.734Z,78.60
2023-03-07T00:30:42.886Z,78.34
2023-03-07T00:33:11.670Z,78.09
2023-03-07T00:35:40.732Z,78.68
2023-03-07T00:38:09.779Z,78.50
2023-03-07T00:40:38.836Z,78.32
2023-03-07T00:43:08.255Z,78.08
2023-03-07T00:45:38.805Z,78.21
2023-03-07T00:48:08.022Z,77.67
2023-03-07T00:50:37.163Z,77.52
2023-03-07T00:53:06.049Z,78.10
2023-03-07T00:55:35.198Z,77.31
2023-03-07T00:58:04.154Z,77.21
2023-03-07T01:00:33.598Z,77.72
2023-03-07T01:03:04.274Z,77.39
2023-03-07T01:05:33.397Z,77.35
2023-03-07T01:08:02.216Z,77.15
2023-03-07T01:10:33.321Z,78.15
2023-03-07T01:13:02.270Z,78.41
2023-03-07T01:15:32.046Z,78.90
2023-03-07T01:18:01.418Z,78.08
2023-03-07T01:20:34.823Z,78.10
2023-03-07T01:23:03.706Z,77.90
2023-03-07T01:25:39.130Z,78.16
2023-03-07T01:28:09.264Z,77.91
2023-03-07T01:30:38.413Z,77.49
2023-03-07T01:33:07.612Z,77.25
2023-03-07T01:35:41.386Z,76.99
2023-03-07T01:38:11.310Z,76.80
2023-03-07T01:40:41.025Z,77.41
2023-03-07T01:43:29.035Z,77.33
2023-03-07T01:46:42.992Z,76.94
2023-03-07T01:49:19.675Z,77.05
2023-03-07T01:51:58.920Z,76.89
2023-03-07T01:54:30.330Z,76.98
2023-03-07T01:57:02.132Z,76.84
2023-03-07T01:59:35.468Z,76.57
2023-03-07T02:02:12.412Z,76.75
2023-03-07T02:04:49.427Z,76.65
2023-03-07T02:07:26.142Z,76.93
2023-03-07T02:09:57.875Z,76.30
2023-03-07T02:12:27.290Z,76.69
2023-03-07T02:14:56.870Z,76.41
2023-03-07T02:17:27.961Z,76.67
2023-03-07T02:20:18.232Z,76.93
2023-03-07T02:22:50.887Z,77.15
2023-03-07T02:25:29.784Z,77.13
2023-03-07T02:28:04.455Z,77.38
2023-03-07T02:30:34.724Z,77.39
2023-03-07T02:33:03.964Z,77.15
2023-03-07T02:35:32.842Z,77.37
2023-03-07T02:38:07.609Z,77.26
2023-03-07T02:40:36.731Z,77.35
2023-03-07T02:43:09.723Z,77.56
2023-03-07T02:45:41.181Z,78.13
2023-03-07T02:48:10.880Z,78.84
2023-03-07T02:50:40.017Z,79.72
2023-03-07T02:53:09.082Z,80.26
2023-03-07T02:55:37.866Z,80.63
2023-03-07T02:58:09.591Z,80.87
2023-03-07T03:00:38.441Z,81.65
2023-03-07T03:03:07.732Z,81.25
2023-03-07T03:05:36.557Z,81.21
2023-03-07T03:08:06.149Z,81.71
2023-03-07T03:10:35.036Z,81.98
2023-03-07T03:13:04.264Z,81.82
2023-03-07T03:15:34.485Z,81.71
2023-03-07T03:18:03.932Z,82.30
2023-03-07T03:20:32.833Z,82.21
2023-03-07T03:23:01.865Z,82.79
2023-03-07T03:25:30.664Z,83.08
2023-03-07T03:27:59.961Z,82.28
2023-03-07T03:30:32.479Z,82.37
2023-03-07T03:33:05.151Z,81.95
2023-03-07T03:35:35.176Z,81.84
2023-03-07T03:38:04.451Z,82.03
2023-03-07T03:40:33.258Z,81.92
2023-03-07T03:43:02.343Z,81.96
2023-03-07T03:45:31.151Z,81.98
2023-03-07T03:48:00.263Z,82.00
2023-03-07T03:50:30.596Z,81.68
2023-03-07T03:53:01.046Z,81.74
2023-03-07T03:55:29.991Z,81.64
2023-03-07T03:58:00.429Z,81.87
2023-03-07T04:00:29.478Z,82.07
2023-03-07T04:02:58.948Z,82.25
2023-03-07T04:05:29.148Z,82.86
2023-03-07T04:07:58.199Z,82.49
2023-03-07T04:10:27.256Z,82.38
2023-03-07T04:12:56.342Z,82.18
2023-03-07T04:15:25.178Z,81.92
2023-03-07T04:17:54.279Z,81.83
2023-03-07T04:20:23.018Z,81.72
2023-03-07T04:22:53.538Z,81.88
2023-03-07T04:25:22.380Z,82.04
2023-03-07T04:27:51.424Z,81.94
2023-03-07T04:30:20.299Z,81.87
2023-03-07T04:32:49.398Z,82.19
2023-03-07T04:35:18.442Z,82.36
2023-03-07T04:37:47.596Z,82.15
2023-03-07T04:40:18.236Z,82.19
2023-03-07T04:42:47.496Z,81.72
2023-03-07T04:45:16.486Z,81.17
2023-03-07T04:47:45.877Z,81.07
2023-03-07T04:50:14.740Z,81.72
2023-03-07T04:52:47.070Z,82.05
2023-03-07T04:55:19.004Z,82.26
2023-03-07T04:57:48.422Z,81.89
2023-03-07T05:00:18.676Z,82.21
2023-03-07T05:02:48.882Z,82.31
2023-03-07T05:05:19.897Z,81.77
2023-03-07T05:07:49.114Z,81.90
2023-03-07T05:10:19.751Z,82.47
2023-03-07T05:12:49.003Z,82.53
2023-03-07T05:15:18.493Z,83.12
2023-03-07T05:17:47.747Z,84.10
2023-03-07T05:20:16.591Z,83.61
2023-03-07T05:22:45.684Z,83.16
2023-03-07T05:25:15.222Z,82.57
2023-03-07T05:27:47.098Z,83.31
2023-03-07T05:30:17.512Z,82.65
2023-03-07T05:32:46.738Z,82.98
2023-03-07T05:35:17.251Z,83.13
2023-03-07T05:37:47.877Z,83.81
2023-03-07T05:40:16.905Z,83.57
2023-03-07T05:42:49.822Z,83.78
2023-03-07T05:45:21.252Z,83.08
2023-03-07T05:47:51.858Z,83.24
2023-03-07T05:50:21.108Z,82.64
2023-03-07T05:52:53.099Z,82.85
2023-03-07T05:55:22.561Z,81.83
2023-03-07T05:57:53.154Z,82.48
2023-03-07T06:00:23.724Z,82.14
2023-03-07T06:02:58.370Z,82.39
2023-03-07T06:05:27.362Z,82.88
2023-03-07T06:07:56.709Z,82.70
2023-03-07T06:10:25.855Z,83.20
2023-03-07T06:12:56.762Z,82.85
2023-03-07T06:15:25.595Z,83.52
2023-03-07T06:18:01.266Z,83.90
2023-03-07T06:20:30.130Z,83.29
2023-03-07T06:22:59.203Z,83.57
2023-03-07T06:25:28.191Z,83.83
2023-03-07T06:28:01.084Z,83.75
2023-03-07T06:30:32.126Z,82.99
2023-03-07T06:33:01.806Z,82.51
2023-03-07T06:35:30.700Z,82.56
2023-03-07T06:37:59.893Z,82.85
2023-03-07T06:40:28.808Z,82.44
2023-03-07T06:43:00.008Z,82.51
2023-03-07T06:45:29.033Z,82.54
2023-03-07T06:47:58.825Z,81.98
2023-03-07T06:50:35.099Z,81.79
2023-03-07T06:53:05.996Z,82.05
2023-03-07T06:55:34.825Z,81.44
2023-03-07T06:58:05.931Z,81.58
2023-03-07T07:00:34.967Z,81.70
2023-03-07T07:03:04.272Z,81.50
2023-03-07T07:05:33.217Z,81.05
2023-03-07T07:08:02.321Z,81.17
2023-03-07T07:10:31.242Z,81.44
2023-03-07T07:13:01.102Z,81.70
2023-03-07T07:15:32.493Z,81.37
2023-03-07T07:18:03.012Z,80.44
2023-03-07T07:20:33.680Z,80.68
2023-03-07T07:23:04.201Z,80.97
2023-03-07T07:25:33.013Z,81.02
2023-03-07T07:28:02.191Z,80.67
2023-03-07T07:30:32.575Z,80.18
2023-03-07T07:33:01.941Z,79.98
2023-03-07T07:35:30.945Z,80.17
2023-03-07T07:38:00.880Z,79.97
2023-03-07T07:40:29.671Z,79.33
2023-03-07T07:42:58.928Z,79.55
2023-03-07T07:45:49.424Z,79.78
2023-03-07T07:48:22.382Z,78.75
2023-03-07T07:50:51.427Z,78.84
2023-03-07T07:53:22.263Z,78.26
2023-03-07T07:55:51.767Z,77.78
2023-03-07T07:58:21.103Z,75.84
2023-03-07T08:00:52.723Z,75.24
2023-03-07T08:03:21.875Z,75.13
2023-03-07T08:05:51.945Z,74.96
2023-03-07T08:08:21.486Z,73.45
2023-03-07T08:10:50.595Z,73.64
2023-03-07T08:13:20.821Z,73.20
2023-03-07T08:15:51.062Z,72.32
2023-03-07T08:18:20.157Z,72.47
2023-03-07T08:20:48.978Z,72.80
2023-03-07T08:23:18.176Z,72.84
2023-03-07T08:25:46.998Z,73.18
2023-03-07T08:28:16.089Z,73.55
2023-03-07T08:30:45.049Z,72.63
2023-03-07T08:33:15.452Z,73.04
2023-03-07T08:35:44.255Z,71.62
2023-03-07T08:38:13.370Z,71.49
2023-03-07T08:40:42.260Z,71.07
2023-03-07T08:43:11.476Z,70.06
2023-03-07T08:45:42.110Z,71.50
2023-03-07T08:48:11.564Z,72.29
2023-03-07T08:50:41.726Z,71.95
2023-03-07T08:53:10.762Z,72.30
2023-03-07T08:55:39.579Z,73.13
2023-03-07T08:58:08.826Z,73.54
2023-03-07T09:00:39.825Z,71.80
2023-03-07T09:03:09.010Z,72.64
2023-03-07T09:05:39.795Z,72.50
2023-03-07T09:08:10.244Z,73.08
2023-03-07T09:10:39.526Z,74.13
2023-03-07T09:13:08.632Z,74.46
2023-03-07T09:15:40.112Z,73.02
2023-03-07T09:18:10.307Z,72.58
2023-03-07T09:20:40.305Z,71.43
2023-03-07T09:23:11.238Z,72.20
2023-03-07T09:25:41.404Z,72.72
2023-03-07T09:28:10.538Z,73.45
2023-03-07T09:30:39.649Z,73.56
2023-03-07T09:33:08.786Z,74.08
2023-03-07T09:35:39.721Z,74.29
2023-03-07T09:38:10.715Z,72.96
2023-03-07T09:40:40.392Z,73.06
2023-03-07T09:43:20.018Z,70.80
2023-03-07T09:46:15.283Z,72.05
2023-03-07T09:49:30.189Z,71.70
2023-03-07T09:52:01.756Z,69.98
2023-03-07T09:54:42.647Z,66.44
2023-03-07T09:57:22.160Z,67.30
2023-03-07T09:59:56.472Z,66.37
2023-03-07T10:02:34.161Z,64.18
2023-03-07T10:05:12.954Z,62.70
2023-03-07T10:07:42.048Z,64.52
2023-03-07T10:10:23.489Z,65.87
2023-03-07T10:13:15.577Z,68.79
2023-03-07T10:15:48.856Z,71.55
2023-03-07T10:18:37.001Z,72.57
2023-03-07T10:21:22.638Z,73.37
2023-03-07T10:24:29.433Z,73.67
2023-03-07T10:27:05.561Z,74.67
2023-03-07T10:29:45.942Z,75.27
2023-03-07T10:32:25.289Z,76.15
2023-03-07T10:35:01.537Z,76.87
2023-03-07T10:37:46.618Z,78.32
2023-03-07T10:40:24.657Z,77.70
2023-03-07T10:42:56.440Z,76.94
2023-03-07T10:45:33.449Z,74.93
2023-03-07T10:48:09.965Z,73.66
2023-03-07T10:50:50.534Z,72.08
2023-03-07T10:53:27.401Z,70.98
2023-03-07T10:56:13.395Z,71.16
2023-03-07T10:59:02.791Z,71.92
2023-03-07T11:01:33.577Z,73.36
2023-03-07T11:04:06.085Z,70.69
2023-03-07T11:06:40.363Z,71.79
2023-03-07T11:09:19.523Z,71.08
2023-03-07T11:11:53.891Z,70.08
2023-03-07T11:14:25.596Z,69.45
2023-03-07T11:16:59.242Z,66.93
2023-03-07T11:19:39.579Z,64.07
2023-03-07T11:22:25.912Z,59.82
2023-03-07T11:25:02.471Z,57.42
2023-03-07T11:27:40.541Z,54.55
2023-03-07T11:30:25.208Z,51.73
2023-03-07T11:33:14.762Z,50.18
2023-03-07T11:36:01.303Z,49.99
2023-03-07T11:38:49.719Z,49.33
2023-03-07T11:41:27.526Z,46.94
2023-03-07T11:44:19.239Z,47.30
2023-03-07T11:47:14.022Z,45.32
2023-03-07T11:49:57.720Z,45.86
2023-03-07T11:53:04.948Z,47.44
2023-03-07T11:55:39.590Z,49.83
2023-03-07T11:58:53.173Z,50.68
2023-03-07T12:01:32.019Z,50.56
2023-03-07T12:04:41.399Z,48.58
2023-03-07T12:07:32.420Z,45.57
2023-03-07T12:10:13.944Z,44.92
2023-03-07T12:13:00.465Z,43.63
2023-03-07T12:15:40.564Z,44.66
2023-03-07T12:18:41.248Z,43.79
2023-03-07T12:21:33.782Z,46.05
2023-03-07T12:24:12.566Z,47.83
2023-03-07T12:26:54.738Z,49.78
2023-03-07T12:29:36.942Z,51.47
2023-03-07T12:32:13.329Z,53.17
2023-03-07T12:34:51.355Z,54.91
2023-03-07T12:37:29.157Z,55.67
2023-03-07T12:40:04.461Z,56.41
2023-03-07T12:42:45.203Z,57.20
2023-03-07T12:45:21.030Z,57.74
2023-03-07T12:48:04.628Z,58.46
2023-03-07T12:50:47.030Z,57.69
2023-03-07T12:53:28.178Z,57.82
2023-03-07T12:56:04.884Z,57.75
2023-03-07T12:58:43.510Z,57.70
2023-03-07T13:01:19.549Z,58.56
2023-03-07T13:03:59.432Z,59.24
2023-03-07T13:06:29.661Z,58.68
2023-03-07T13:09:04.223Z,58.02
2023-03-07T13:11:36.848Z,58.59
2023-03-07T13:14:06.804Z,58.67
2023-03-07T13:16:42.108Z,59.44
2023-03-07T13:19:54.551Z,58.79
2023-03-07T13:23:01.344Z,59.54
2023-03-07T13:26:03.829Z,60.14
2023-03-07T13:28:52.064Z,59.77
2023-03-07T13:31:43.824Z,60.12
2023-03-07T13:34:51.307Z,60.32
2023-03-07T13:37:58.047Z,60.14
2023-03-07T13:40:55.854Z,60.52
2023-03-07T13:44:05.270Z,60.28
2023-03-07T13:46:58.831Z,59.97
2023-03-07T13:49:51.808Z,60.06
2023-03-07T13:52:45.850Z,60.32
2023-03-07T13:55:28.209Z,60.05
2023-03-07T13:58:07.158Z,60.33
2023-03-07T14:00:50.222Z,60.50
2023-03-07T14:03:29.929Z,60.60
2023-03-07T14:06:04.611Z,59.84
2023-03-07T14:08:36.737Z,60.28
2023-03-07T14:11:08.009Z,60.36
2023-03-07T14:14:15.819Z,60.23
2023-03-07T14:17:23.446Z,59.84
2023-03-07T14:20:09.218Z,59.96
2023-03-07T14:22:59.684Z,60.42
2023-03-07T14:25:32.951Z,60.19
2023-03-07T14:28:06.335Z,59.36
2023-03-07T14:30:35.755Z,59.56
2023-03-07T14:33:05.944Z,58.72
2023-03-07T14:35:42.499Z,58.47
2023-03-07T14:38:22.214Z,58.02
2023-03-07T14:41:12.607Z,57.72
2023-03-07T14:43:58.068Z,57.25
2023-03-07T14:46:42.530Z,57.85
2023-03-07T14:49:32.239Z,57.39
2023-03-07T14:52:04.288Z,57.66
2023-03-07T14:54:38.482Z,57.12
2023-03-07T14:57:22.457Z,56.94
2023-03-07T15:00:26.076Z,57.65
2023-03-07T15:02:59.862Z,57.52
2023-03-07T15:05:33.311Z,57.74
2023-03-07T15:08:02.886Z,57.51
2023-03-07T15:10:40.750Z,57.15
2023-03-07T15:13:21.590Z,56.83
2023-03-07T15:15:56.050Z,56.74
2023-03-07T15:18:30.376Z,56.72
2023-03-07T15:21:03.611Z,57.17
2023-03-07T15:23:33.055Z,56.85
2023-03-07T15:26:05.326Z,57.17
2023-03-07T15:28:37.838Z,57.31
2023-03-07T15:31:08.732Z,56.56
2023-03-07T15:33:38.158Z,56.59
2023-03-07T15:36:27.104Z,57.52
2023-03-07T15:39:34.766Z,57.58
2023-03-07T15:42:07.517Z,57.45
2023-03-07T15:44:38.044Z,57.69
2023-03-07T15:47:17.962Z,58.25
2023-03-07T15:49:51.147Z,57.02
2023-03-07T15:52:31.453Z,57.44
2023-03-07T15:55:05.292Z,57.58
2023-03-07T15:57:39.437Z,57.28
2023-03-07T16:00:19.249Z,57.31
2023-03-07T16:02:50.217Z,57.56
2023-03-07T16:05:33.912Z,56.95
2023-03-07T16:08:04.197Z,57.83
2023-03-07T16:10:33.906Z,57.54
2023-03-07T16:13:03.238Z,57.09
2023-03-07T16:15:32.500Z,57.10
2023-03-07T16:18:01.924Z,57.85
2023-03-07T16:20:31.056Z,57.64
2023-03-07T16:23:00.270Z,57.67
2023-03-07T16:25:32.997Z,57.97
2023-03-07T16:28:02.216Z,58.01
2023-03-07T16:30:34.341Z,57.82
2023-03-07T16:33:03.256Z,58.27
2023-03-07T16:35:32.416Z,58.61
2023-03-07T16:38:01.694Z,58.78
2023-03-07T16:40:33.382Z,58.29
2023-03-07T16:43:03.192Z,58.97
2023-03-07T16:45:33.957Z,58.54
2023-03-07T16:48:03.460Z,58.76
2023-03-07T16:50:34.505Z,59.34
2023-03-07T16:53:03.599Z,58.71
2023-03-07T16:55:34.334Z,59.08
2023-03-07T16:58:08.444Z,59.14
2023-03-07T17:00:37.896Z,58.93
2023-03-07T17:03:06.791Z,59.27
2023-03-07T17:05:35.959Z,59.03
2023-03-07T17:08:04.857Z,59.20
2023-03-07T17:10:37.395Z,59.06
2023-03-07T17:13:12.268Z,59.39
2023-03-07T17:15:41.861Z,59.47
2023-03-07T17:18:13.301Z,60.06
2023-03-07T17:20:42.620Z,59.59
2023-03-07T17:23:11.392Z,59.53
2023-03-07T17:25:41.903Z,59.69
2023-03-07T17:28:18.627Z,59.80
2023-03-07T17:30:50.098Z,60.13
2023-03-07T17:33:19.732Z,59.85
2023-03-07T17:35:48.834Z,59.91
2023-03-07T17:38:17.670Z,60.20
2023-03-07T17:40:54.926Z,60.53
2023-03-07T17:43:24.167Z,60.57
2023-03-07T17:45:53.330Z,60.63
2023-03-07T17:48:22.236Z,60.47
2023-03-07T17:50:51.460Z,60.86
2023-03-07T17:53:20.443Z,60.62
2023-03-07T17:55:50.899Z,60.62
2023-03-07T17:58:19.837Z,60.99
2023-03-07T18:00:48.979Z,60.62
2023-03-07T18:03:17.792Z,60.64
2023-03-07T18:05:46.934Z,61.05
2023-03-07T18:08:15.757Z,60.49
2023-03-07T18:10:44.887Z,60.47
2023-03-07T18:13:15.239Z,60.96
2023-03-07T18:15:47.076Z,61.10
2023-03-07T18:18:16.343Z,60.82
2023-03-07T18:20:46.104Z,60.67
2023-03-07T18:23:14.949Z,61.24
2023-03-07T18:25:44.046Z,61.22
2023-03-07T18:28:14.220Z,61.01
2023-03-07T18:30:43.428Z,61.24
2023-03-07T18:33:12.249Z,61.93
2023-03-07T18:35:41.646Z,61.52
2023-03-07T18:38:10.476Z,61.37
2023-03-07T18:40:39.547Z,61.47
2023-03-07T18:43:08.420Z,61.55
2023-03-07T18:45:43.708Z,61.29
2023-03-07T18:48:12.963Z,61.45
2023-03-07T18:50:42.142Z,61.51
2023-03-07T18:53:10.969Z,61.85
2023-03-07T18:55:40.097Z,62.05
2023-03-07T18:58:08.902Z,61.95
2023-03-07T19:00:39.418Z,61.96
2023-03-07T19:03:08.298Z,61.80
2023-03-07T19:05:44.149Z,62.52
2023-03-07T19:08:13.214Z,62.06
2023-03-07T19:10:43.723Z,62.71
2023-03-07T19:13:12.701Z,61.92
2023-03-07T19:15:45.002Z,62.42
2023-03-07T19:18:13.939Z,62.92
2023-03-07T19:20:43.213Z,63.52
2023-03-07T19:23:12.375Z,63.37
2023-03-07T19:25:41.870Z,64.25
2023-03-07T19:28:10.783Z,64.55
2023-03-07T19:30:40.079Z,65.55
2023-03-07T19:33:10.468Z,65.34
2023-03-07T19:35:39.868Z,65.77
2023-03-07T19:38:08.820Z,66.09
2023-03-07T19:40:37.903Z,66.79
2023-03-07T19:43:06.754Z,66.93
2023-03-07T19:45:40.647Z,67.40
2023-03-07T19:48:10.900Z,67.75
2023-03-07T19:50:42.285Z,68.00
2023-03-07T19:53:11.228Z,68.49
2023-03-07T19:55:40.409Z,68.37
2023-03-07T19:58:09.322Z,68.77
2023-03-07T20:00:40.224Z,69.13
2023-03-07T20:03:13.460Z,68.70
2023-03-07T20:05:43.368Z,68.41
2023-03-07T20:08:12.694Z,67.85
2023-03-07T20:10:42.522Z,67.46
2023-03-07T20:13:13.578Z,67.49
2023-03-07T20:15:51.691Z,67.19
2023-03-07T20:18:21.944Z,66.96
2023-03-07T20:20:51.088Z,67.59
2023-03-07T20:23:20.138Z,67.61
2023-03-07T20:25:49.311Z,67.56
2023-03-07T20:28:18.168Z,67.66
2023-03-07T20:30:47.270Z,68.02
2023-03-07T20:33:16.042Z,68.07
2023-03-07T20:35:46.500Z,68.60
2023-03-07T20:38:15.341Z,68.52
2023-03-07T20:40:44.406Z,68.65
2023-03-07T20:43:13.307Z,68.30
2023-03-07T20:45:42.340Z,68.67
2023-03-07T20:48:11.236Z,69.44
2023-03-07T20:50:40.256Z,69.09
2023-03-07T20:53:10.440Z,69.81
2023-03-07T20:55:39.709Z,70.19
2023-03-07T20:58:08.860Z,70.52
2023-03-07T21:00:37.952Z,71.23
2023-03-07T21:03:09.970Z,71.51
2023-03-07T21:05:39.073Z,71.76
2023-03-07T21:08:10.000Z,71.69
2023-03-07T21:10:39.081Z,72.17
2023-03-07T21:13:07.956Z,72.22
2023-03-07T21:15:37.075Z,72.34
2023-03-07T21:18:06.028Z,73.07
2023-03-07T21:20:36.788Z,73.00
2023-03-07T21:23:05.651Z,73.26
2023-03-07T21:25:36.085Z,73.49
2023-03-07T21:28:05.077Z,73.25
2023-03-07T21:30:34.689Z,73.60
2023-03-07T21:33:03.625Z,73.84
2023-03-07T21:35:37.896Z,73.91
2023-03-07T21:38:07.496Z,73.94
2023-03-07T21:40:37.957Z,74.30
2023-03-07T21:43:06.731Z,74.74
2023-03-07T21:45:35.957Z,74.17
2023-03-07T21:48:04.937Z,74.46
2023-03-07T21:50:34.462Z,75.08
2023-03-07T21:53:03.282Z,75.09
2023-03-07T21:55:32.465Z,75.10
2023-03-07T21:58:02.875Z,75.06
2023-03-07T22:00:32.171Z,75.10
2023-03-07T22:03:01.100Z,75.25
2023-03-07T22:05:30.223Z,75.90
2023-03-07T22:07:58.996Z,76.43
2023-03-07T22:10:28.176Z,76.57
2023-03-07T22:12:56.972Z,77.78
2023-03-07T22:15:27.618Z,79.05
2023-03-07T22:17:56.719Z,80.76
2023-03-07T22:20:25.849Z,81.44
2023-03-07T22:22:55.395Z,82.17
2023-03-07T22:25:24.622Z,83.15
2023-03-07T22:27:53.490Z,83.96
2023-03-07T22:30:22.803Z,84.91
2023-03-07T22:32:52.969Z,85.20
2023-03-07T22:35:22.063Z,85.36
2023-03-07T22:37:50.890Z,85.96
2023-03-07T22:40:20.633Z,85.66
2023-03-07T22:42:51.415Z,85.99
2023-03-07T22:45:20.650Z,85.80
2023-03-07T22:47:49.394Z,86.37
2023-03-07T22:50:20.201Z,86.95
2023-03-07T22:52:49.090Z,86.66
2023-03-07T22:55:18.418Z,86.99
2023-03-07T22:57:47.166Z,86.47
2023-03-07T23:00:17.161Z,86.37
2023-03-07T23:02:46.027Z,85.51
2023-03-07T23:05:15.251Z,85.62
2023-03-07T23:07:47.218Z,85.55
2023-03-07T23:10:18.522Z,85.84
2023-03-07T23:12:51.149Z,86.58
2023-03-07T23:15:20.333Z,87.00
2023-03-07T23:17:49.465Z,87.66
2023-03-07T23:20:19.849Z,88.19
2023-03-07T23:22:50.078Z,88.49
2023-03-07T23:25:19.449Z,88.23
2023-03-07T23:27:48.572Z,88.35
2023-03-07T23:30:19.142Z,88.84
2023-03-07T23:32:48.233Z,88.83
2023-03-07T23:35:17.495Z,88.66
2023-03-07T23:37:49.945Z,88.84
2023-03-07T23:40:19.556Z,88.35
2023-03-07T23:42:48.323Z,87.79
2023-03-07T23:45:17.894Z,87.61
2023-03-07T23:47:46.655Z,87.66
2023-03-07T23:50:16.391Z,87.53
2023-03-07T23:52:45.304Z,87.64
2023-03-07T23:55:16.733Z,87.39
2023-03-07T23:57:47.821Z,88.14
